sensor_id;sensor_type;location;lat;lon;timestamp;P1;durP1;ratioP1;P2;durP2;ratioP2
37087;SDS011;23002;52.676;6.432;2024-03-02T00:00:39;2.85;;;1.67;;
37087;SDS011;23002;52.676;6.432;2024-03-02T00:03:07;2.55;;;1.35;;
37087;SDS011;23002;52.676;6.432;2024-03-02T00:05:36;2.50;;;1.63;;
37087;SDS011;23002;52.676;6.432;2024-03-02T00:08:04;4.68;;;1.90;;
37087;SDS011;23002;52.676;6.432;2024-03-02T00:10:38;3.65;;;1.90;;
37087;SDS011;23002;52.676;6.432;2024-03-02T00:13:07;3.38;;;1.50;;
37087;SDS011;23002;52.676;6.432;2024-03-02T00:18:11;4.28;;;1.77;;
37087;SDS011;23002;52.676;6.432;2024-03-02T00:20:39;2.75;;;1.60;;
37087;SDS011;23002;52.676;6.432;2024-03-02T00:23:08;5.32;;;2.05;;
37087;SDS011;23002;52.676;6.432;2024-03-02T00:25:36;3.95;;;1.95;;
37087;SDS011;23002;52.676;6.432;2024-03-02T00:28:05;4.57;;;1.95;;
37087;SDS011;23002;52.676;6.432;2024-03-02T00:30:51;3.50;;;1.90;;
37087;SDS011;23002;52.676;6.432;2024-03-02T00:33:22;3.20;;;1.70;;
37087;SDS011;23002;52.676;6.432;2024-03-02T00:35:50;3.42;;;1.88;;
37087;SDS011;23002;52.676;6.432;2024-03-02T00:38:17;5.35;;;1.70;;
37087;SDS011;23002;52.676;6.432;2024-03-02T00:40:45;3.13;;;1.92;;
37087;SDS011;23002;52.676;6.432;2024-03-02T00:45:58;3.60;;;1.80;;
37087;SDS011;23002;52.676;6.432;2024-03-02T00:48:25;3.17;;;1.60;;
37087;SDS011;23002;52.676;6.432;2024-03-02T00:50:53;5.03;;;1.52;;
37087;SDS011;23002;52.676;6.432;2024-03-02T00:53:22;4.35;;;2.35;;
37087;SDS011;23002;52.676;6.432;2024-03-02T00:55:53;4.47;;;2.08;;
37087;SDS011;23002;52.676;6.432;2024-03-02T00:58:20;3.30;;;1.90;;
37087;SDS011;23002;52.676;6.432;2024-03-02T01:00:48;3.33;;;1.70;;
37087;SDS011;23002;52.676;6.432;2024-03-02T01:03:15;3.53;;;2.00;;
37087;SDS011;23002;52.676;6.432;2024-03-02T01:05:43;3.05;;;1.77;;
37087;SDS011;23002;52.676;6.432;2024-03-02T01:08:10;3.55;;;1.80;;
37087;SDS011;23002;52.676;6.432;2024-03-02T01:10:37;3.60;;;1.42;;
37087;SDS011;23002;52.676;6.432;2024-03-02T01:13:04;4.10;;;1.67;;
37087;SDS011;23002;52.676;6.432;2024-03-02T01:15:33;3.50;;;1.65;;
37087;SDS011;23002;52.676;6.432;2024-03-02T01:18:00;3.63;;;1.90;;
37087;SDS011;23002;52.676;6.432;2024-03-02T01:20:27;3.45;;;1.73;;
37087;SDS011;23002;52.676;6.432;2024-03-02T01:22:55;2.45;;;1.50;;
37087;SDS011;23002;52.676;6.432;2024-03-02T01:25:22;4.28;;;1.90;;
37087;SDS011;23002;52.676;6.432;2024-03-02T01:27:50;4.10;;;1.77;;
37087;SDS011;23002;52.676;6.432;2024-03-02T01:30:17;4.05;;;1.75;;
37087;SDS011;23002;52.676;6.432;2024-03-02T01:32:44;1.95;;;1.70;;
37087;SDS011;23002;52.676;6.432;2024-03-02T01:35:12;4.20;;;1.90;;
37087;SDS011;23002;52.676;6.432;2024-03-02T01:37:39;4.18;;;1.70;;
37087;SDS011;23002;52.676;6.432;2024-03-02T01:40:07;4.55;;;1.63;;
37087;SDS011;23002;52.676;6.432;2024-03-02T01:42:36;2.30;;;1.50;;
37087;SDS011;23002;52.676;6.432;2024-03-02T01:45:06;3.25;;;1.60;;
37087;SDS011;23002;52.676;6.432;2024-03-02T01:47:34;2.60;;;1.63;;
37087;SDS011;23002;52.676;6.432;2024-03-02T01:50:02;3.58;;;1.58;;
37087;SDS011;23002;52.676;6.432;2024-03-02T01:52:29;3.38;;;1.60;;
37087;SDS011;23002;52.676;6.432;2024-03-02T01:54:56;4.78;;;1.77;;
37087;SDS011;23002;52.676;6.432;2024-03-02T01:57:24;3.33;;;1.80;;
37087;SDS011;23002;52.676;6.432;2024-03-02T01:59:51;3.03;;;2.00;;
37087;SDS011;23002;52.676;6.432;2024-03-02T02:02:19;2.33;;;1.60;;
37087;SDS011;23002;52.676;6.432;2024-03-02T02:04:46;3.55;;;1.73;;
37087;SDS011;23002;52.676;6.432;2024-03-02T02:07:13;4.07;;;1.80;;
37087;SDS011;23002;52.676;6.432;2024-03-02T02:09:41;5.95;;;1.83;;
37087;SDS011;23002;52.676;6.432;2024-03-02T02:12:09;4.72;;;1.70;;
37087;SDS011;23002;52.676;6.432;2024-03-02T02:14:36;3.47;;;1.65;;
37087;SDS011;23002;52.676;6.432;2024-03-02T02:17:06;2.60;;;1.40;;
37087;SDS011;23002;52.676;6.432;2024-03-02T02:19:33;3.45;;;1.60;;
37087;SDS011;23002;52.676;6.432;2024-03-02T02:22:01;3.50;;;1.75;;
37087;SDS011;23002;52.676;6.432;2024-03-02T02:24:28;4.03;;;1.40;;
37087;SDS011;23002;52.676;6.432;2024-03-02T02:26:55;3.30;;;1.90;;
37087;SDS011;23002;52.676;6.432;2024-03-02T02:29:22;4.72;;;2.15;;
37087;SDS011;23002;52.676;6.432;2024-03-02T02:31:50;2.67;;;1.33;;
37087;SDS011;23002;52.676;6.432;2024-03-02T02:34:17;2.47;;;1.50;;
37087;SDS011;23002;52.676;6.432;2024-03-02T02:36:44;4.05;;;2.00;;
37087;SDS011;23002;52.676;6.432;2024-03-02T02:39:13;3.75;;;1.70;;
37087;SDS011;23002;52.676;6.432;2024-03-02T02:41:40;2.92;;;1.70;;
37087;SDS011;23002;52.676;6.432;2024-03-02T02:44:08;3.80;;;1.70;;
37087;SDS011;23002;52.676;6.432;2024-03-02T02:46:37;2.95;;;1.30;;
37087;SDS011;23002;52.676;6.432;2024-03-02T02:49:05;3.15;;;1.70;;
37087;SDS011;23002;52.676;6.432;2024-03-02T02:51:32;2.78;;;1.80;;
37087;SDS011;23002;52.676;6.432;2024-03-02T02:53:59;2.08;;;1.40;;
37087;SDS011;23002;52.676;6.432;2024-03-02T02:56:27;3.10;;;1.45;;
37087;SDS011;23002;52.676;6.432;2024-03-02T02:58:54;4.05;;;1.60;;
37087;SDS011;23002;52.676;6.432;2024-03-02T03:01:21;3.25;;;1.52;;
37087;SDS011;23002;52.676;6.432;2024-03-02T03:03:48;3.30;;;1.75;;
37087;SDS011;23002;52.676;6.432;2024-03-02T03:06:16;2.83;;;1.98;;
37087;SDS011;23002;52.676;6.432;2024-03-02T03:08:43;3.22;;;1.58;;
37087;SDS011;23002;52.676;6.432;2024-03-02T03:11:10;2.90;;;1.40;;
37087;SDS011;23002;52.676;6.432;2024-03-02T03:13:38;3.42;;;1.33;;
37087;SDS011;23002;52.676;6.432;2024-03-02T03:16:05;3.38;;;1.65;;
37087;SDS011;23002;52.676;6.432;2024-03-02T03:18:32;5.68;;;1.70;;
37087;SDS011;23002;52.676;6.432;2024-03-02T03:21:00;5.15;;;1.40;;
37087;SDS011;23002;52.676;6.432;2024-03-02T03:23:27;2.47;;;1.45;;
37087;SDS011;23002;52.676;6.432;2024-03-02T03:25:54;2.65;;;1.80;;
37087;SDS011;23002;52.676;6.432;2024-03-02T03:28:21;2.88;;;1.50;;
37087;SDS011;23002;52.676;6.432;2024-03-02T03:30:49;2.53;;;1.40;;
37087;SDS011;23002;52.676;6.432;2024-03-02T03:33:16;2.65;;;1.30;;
37087;SDS011;23002;52.676;6.432;2024-03-02T03:35:43;4.40;;;1.60;;
37087;SDS011;23002;52.676;6.432;2024-03-02T03:38:10;2.85;;;1.42;;
37087;SDS011;23002;52.676;6.432;2024-03-02T03:40:38;2.58;;;1.50;;
37087;SDS011;23002;52.676;6.432;2024-03-02T03:43:05;4.53;;;1.58;;
37087;SDS011;23002;52.676;6.432;2024-03-02T03:45:32;2.92;;;1.42;;
37087;SDS011;23002;52.676;6.432;2024-03-02T03:48:00;3.88;;;1.65;;
37087;SDS011;23002;52.676;6.432;2024-03-02T03:50:27;2.03;;;1.20;;
37087;SDS011;23002;52.676;6.432;2024-03-02T03:52:55;3.40;;;1.70;;
37087;SDS011;23002;52.676;6.432;2024-03-02T03:55:22;4.00;;;1.55;;
37087;SDS011;23002;52.676;6.432;2024-03-02T03:57:49;2.45;;;1.30;;
37087;SDS011;23002;52.676;6.432;2024-03-02T04:00:16;2.47;;;1.30;;
37087;SDS011;23002;52.676;6.432;2024-03-02T04:02:44;5.47;;;2.28;;
37087;SDS011;23002;52.676;6.432;2024-03-02T04:05:11;5.05;;;2.85;;
37087;SDS011;23002;52.676;6.432;2024-03-02T04:07:38;3.85;;;2.45;;
37087;SDS011;23002;52.676;6.432;2024-03-02T04:10:09;5.17;;;2.80;;
37087;SDS011;23002;52.676;6.432;2024-03-02T04:12:38;5.13;;;3.00;;
37087;SDS011;23002;52.676;6.432;2024-03-02T04:15:06;4.20;;;2.10;;
37087;SDS011;23002;52.676;6.432;2024-03-02T04:17:33;4.57;;;2.60;;
37087;SDS011;23002;52.676;6.432;2024-03-02T04:20:02;2.80;;;1.73;;
37087;SDS011;23002;52.676;6.432;2024-03-02T04:22:32;3.42;;;1.65;;
37087;SDS011;23002;52.676;6.432;2024-03-02T04:25:00;3.13;;;1.60;;
37087;SDS011;23002;52.676;6.432;2024-03-02T04:27:28;2.35;;;1.65;;
37087;SDS011;23002;52.676;6.432;2024-03-02T04:29:55;3.22;;;1.60;;
37087;SDS011;23002;52.676;6.432;2024-03-02T04:32:22;3.67;;;1.40;;
37087;SDS011;23002;52.676;6.432;2024-03-02T04:34:49;2.38;;;1.40;;
37087;SDS011;23002;52.676;6.432;2024-03-02T04:37:17;3.60;;;1.27;;
37087;SDS011;23002;52.676;6.432;2024-03-02T04:39:44;3.50;;;1.73;;
37087;SDS011;23002;52.676;6.432;2024-03-02T04:42:11;1.98;;;1.30;;
37087;SDS011;23002;52.676;6.432;2024-03-02T04:44:39;2.70;;;1.40;;
37087;SDS011;23002;52.676;6.432;2024-03-02T04:47:06;3.40;;;1.52;;
37087;SDS011;23002;52.676;6.432;2024-03-02T04:49:33;1.92;;;0.93;;
37087;SDS011;23002;52.676;6.432;2024-03-02T04:52:00;2.03;;;1.52;;
37087;SDS011;23002;52.676;6.432;2024-03-02T04:54:28;3.13;;;1.52;;
37087;SDS011;23002;52.676;6.432;2024-03-02T04:56:55;2.75;;;1.45;;
37087;SDS011;23002;52.676;6.432;2024-03-02T04:59:23;2.70;;;1.30;;
37087;SDS011;23002;52.676;6.432;2024-03-02T05:01:50;2.60;;;1.40;;
37087;SDS011;23002;52.676;6.432;2024-03-02T05:04:17;2.50;;;1.13;;
37087;SDS011;23002;52.676;6.432;2024-03-02T05:06:44;2.50;;;1.10;;
37087;SDS011;23002;52.676;6.432;2024-03-02T05:09:19;2.08;;;1.00;;
37087;SDS011;23002;52.676;6.432;2024-03-02T05:11:46;2.42;;;0.60;;
37087;SDS011;23002;52.676;6.432;2024-03-02T05:14:36;0.80;;;0.50;;
37087;SDS011;23002;52.676;6.432;2024-03-02T05:17:04;3.35;;;0.70;;
37087;SDS011;23002;52.676;6.432;2024-03-02T05:19:32;0.70;;;0.50;;
37087;SDS011;23002;52.676;6.432;2024-03-02T05:21:59;1.08;;;0.70;;
37087;SDS011;23002;52.676;6.432;2024-03-02T05:24:26;2.45;;;0.70;;
37087;SDS011;23002;52.676;6.432;2024-03-02T05:26:54;1.10;;;0.50;;
37087;SDS011;23002;52.676;6.432;2024-03-02T05:29:21;2.55;;;0.70;;
37087;SDS011;23002;52.676;6.432;2024-03-02T05:31:48;0.98;;;0.40;;
37087;SDS011;23002;52.676;6.432;2024-03-02T05:34:16;0.30;;;0.30;;
37087;SDS011;23002;52.676;6.432;2024-03-02T05:36:43;2.10;;;0.47;;
37087;SDS011;23002;52.676;6.432;2024-03-02T05:39:10;0.32;;;0.30;;
37087;SDS011;23002;52.676;6.432;2024-03-02T05:41:37;1.70;;;0.32;;
37087;SDS011;23002;52.676;6.432;2024-03-02T05:44:05;0.75;;;0.35;;
37087;SDS011;23002;52.676;6.432;2024-03-02T05:46:32;0.73;;;0.28;;
37087;SDS011;23002;52.676;6.432;2024-03-02T05:49:00;1.08;;;0.30;;
37087;SDS011;23002;52.676;6.432;2024-03-02T05:51:27;0.57;;;0.30;;
37087;SDS011;23002;52.676;6.432;2024-03-02T05:53:55;0.40;;;0.30;;
37087;SDS011;23002;52.676;6.432;2024-03-02T05:56:22;0.90;;;0.30;;
37087;SDS011;23002;52.676;6.432;2024-03-02T05:58:49;0.57;;;0.25;;
37087;SDS011;23002;52.676;6.432;2024-03-02T06:01:39;1.27;;;0.30;;
37087;SDS011;23002;52.676;6.432;2024-03-02T06:04:07;0.47;;;0.30;;
37087;SDS011;23002;52.676;6.432;2024-03-02T06:06:34;0.77;;;0.30;;
37087;SDS011;23002;52.676;6.432;2024-03-02T06:09:02;0.73;;;0.30;;
37087;SDS011;23002;52.676;6.432;2024-03-02T06:14:01;1.48;;;0.30;;
37087;SDS011;23002;52.676;6.432;2024-03-02T06:16:28;0.35;;;0.25;;
37087;SDS011;23002;52.676;6.432;2024-03-02T06:18:56;2.33;;;0.50;;
37087;SDS011;23002;52.676;6.432;2024-03-02T06:21:27;0.55;;;0.40;;
37087;SDS011;23002;52.676;6.432;2024-03-02T06:23:54;1.55;;;0.40;;
37087;SDS011;23002;52.676;6.432;2024-03-02T06:26:23;0.68;;;0.45;;
37087;SDS011;23002;52.676;6.432;2024-03-02T06:28:51;0.38;;;0.20;;
37087;SDS011;23002;52.676;6.432;2024-03-02T06:31:19;2.08;;;0.30;;
37087;SDS011;23002;52.676;6.432;2024-03-02T06:33:46;1.48;;;0.55;;
37087;SDS011;23002;52.676;6.432;2024-03-02T06:36:13;0.88;;;0.30;;
37087;SDS011;23002;52.676;6.432;2024-03-02T06:38:42;0.30;;;0.30;;
37087;SDS011;23002;52.676;6.432;2024-03-02T06:41:09;1.77;;;0.30;;
37087;SDS011;23002;52.676;6.432;2024-03-02T06:43:37;1.35;;;0.32;;
37087;SDS011;23002;52.676;6.432;2024-03-02T06:46:05;0.60;;;0.35;;
37087;SDS011;23002;52.676;6.432;2024-03-02T06:48:35;0.40;;;0.40;;
37087;SDS011;23002;52.676;6.432;2024-03-02T06:51:03;1.88;;;0.40;;
37087;SDS011;23002;52.676;6.432;2024-03-02T06:53:30;0.40;;;0.30;;
37087;SDS011;23002;52.676;6.432;2024-03-02T06:55:59;1.85;;;0.20;;
37087;SDS011;23002;52.676;6.432;2024-03-02T06:58:27;2.83;;;0.30;;
37087;SDS011;23002;52.676;6.432;2024-03-02T07:00:54;0.38;;;0.20;;
37087;SDS011;23002;52.676;6.432;2024-03-02T07:03:21;1.60;;;1.13;;
37087;SDS011;23002;52.676;6.432;2024-03-02T07:05:48;0.43;;;0.25;;
37087;SDS011;23002;52.676;6.432;2024-03-02T07:08:16;0.77;;;0.40;;
37087;SDS011;23002;52.676;6.432;2024-03-02T07:10:43;0.40;;;0.30;;
37087;SDS011;23002;52.676;6.432;2024-03-02T07:13:10;1.02;;;0.50;;
37087;SDS011;23002;52.676;6.432;2024-03-02T07:15:38;0.52;;;0.35;;
37087;SDS011;23002;52.676;6.432;2024-03-02T07:18:31;2.95;;;0.32;;
37087;SDS011;23002;52.676;6.432;2024-03-02T07:21:07;1.80;;;0.32;;
37087;SDS011;23002;52.676;6.432;2024-03-02T07:23:34;1.05;;;0.52;;
37087;SDS011;23002;52.676;6.432;2024-03-02T07:26:01;1.23;;;0.30;;
37087;SDS011;23002;52.676;6.432;2024-03-02T07:28:32;1.95;;;0.32;;
37087;SDS011;23002;52.676;6.432;2024-03-02T07:33:27;1.08;;;0.47;;
37087;SDS011;23002;52.676;6.432;2024-03-02T07:35:55;0.43;;;0.38;;
37087;SDS011;23002;52.676;6.432;2024-03-02T07:38:23;1.50;;;0.60;;
37087;SDS011;23002;52.676;6.432;2024-03-02T07:40:50;1.10;;;0.40;;
37087;SDS011;23002;52.676;6.432;2024-03-02T07:43:17;3.20;;;0.57;;
37087;SDS011;23002;52.676;6.432;2024-03-02T07:45:48;0.88;;;0.47;;
37087;SDS011;23002;52.676;6.432;2024-03-02T07:48:15;1.25;;;0.50;;
37087;SDS011;23002;52.676;6.432;2024-03-02T07:50:43;2.05;;;0.60;;
37087;SDS011;23002;52.676;6.432;2024-03-02T07:53:10;1.40;;;0.40;;
37087;SDS011;23002;52.676;6.432;2024-03-02T07:55:38;0.30;;;0.20;;
37087;SDS011;23002;52.676;6.432;2024-03-02T07:58:05;2.17;;;0.57;;
37087;SDS011;23002;52.676;6.432;2024-03-02T08:00:33;0.80;;;0.40;;
37087;SDS011;23002;52.676;6.432;2024-03-02T08:03:01;0.82;;;0.30;;
37087;SDS011;23002;52.676;6.432;2024-03-02T08:05:29;0.73;;;0.30;;
37087;SDS011;23002;52.676;6.432;2024-03-02T08:07:56;0.50;;;0.35;;
37087;SDS011;23002;52.676;6.432;2024-03-02T08:10:24;0.68;;;0.40;;
37087;SDS011;23002;52.676;6.432;2024-03-02T08:12:51;2.72;;;0.57;;
37087;SDS011;23002;52.676;6.432;2024-03-02T08:15:18;2.17;;;0.40;;
37087;SDS011;23002;52.676;6.432;2024-03-02T08:17:46;0.93;;;0.50;;
37087;SDS011;23002;52.676;6.432;2024-03-02T08:20:16;2.42;;;0.40;;
37087;SDS011;23002;52.676;6.432;2024-03-02T08:22:43;1.42;;;0.20;;
37087;SDS011;23002;52.676;6.432;2024-03-02T08:25:11;1.48;;;0.30;;
37087;SDS011;23002;52.676;6.432;2024-03-02T08:27:39;0.80;;;0.30;;
37087;SDS011;23002;52.676;6.432;2024-03-02T08:30:07;1.63;;;0.30;;
37087;SDS011;23002;52.676;6.432;2024-03-02T08:32:36;0.50;;;0.20;;
37087;SDS011;23002;52.676;6.432;2024-03-02T08:35:04;1.58;;;0.40;;
37087;SDS011;23002;52.676;6.432;2024-03-02T08:37:31;1.45;;;0.52;;
37087;SDS011;23002;52.676;6.432;2024-03-02T08:39:59;0.30;;;0.30;;
37087;SDS011;23002;52.676;6.432;2024-03-02T08:42:26;0.35;;;0.25;;
37087;SDS011;23002;52.676;6.432;2024-03-02T08:44:54;0.82;;;0.40;;
37087;SDS011;23002;52.676;6.432;2024-03-02T08:47:21;2.58;;;0.30;;
37087;SDS011;23002;52.676;6.432;2024-03-02T08:49:48;0.90;;;0.30;;
37087;SDS011;23002;52.676;6.432;2024-03-02T08:52:15;1.85;;;0.30;;
37087;SDS011;23002;52.676;6.432;2024-03-02T08:54:43;0.55;;;0.30;;
37087;SDS011;23002;52.676;6.432;2024-03-02T08:57:10;0.88;;;0.40;;
37087;SDS011;23002;52.676;6.432;2024-03-02T08:59:37;0.88;;;0.40;;
37087;SDS011;23002;52.676;6.432;2024-03-02T09:02:04;0.85;;;0.40;;
37087;SDS011;23002;52.676;6.432;2024-03-02T09:04:32;0.55;;;0.30;;
37087;SDS011;23002;52.676;6.432;2024-03-02T09:07:00;1.73;;;0.60;;
37087;SDS011;23002;52.676;6.432;2024-03-02T09:09:28;1.20;;;0.40;;
37087;SDS011;23002;52.676;6.432;2024-03-02T09:11:58;0.80;;;0.40;;
37087;SDS011;23002;52.676;6.432;2024-03-02T09:14:25;0.65;;;0.30;;
37087;SDS011;23002;52.676;6.432;2024-03-02T09:16:52;0.28;;;0.20;;
37087;SDS011;23002;52.676;6.432;2024-03-02T09:19:20;1.80;;;0.30;;
37087;SDS011;23002;52.676;6.432;2024-03-02T09:21:47;0.57;;;0.30;;
37087;SDS011;23002;52.676;6.432;2024-03-02T09:24:15;1.48;;;0.32;;
37087;SDS011;23002;52.676;6.432;2024-03-02T09:26:43;0.52;;;0.32;;
37087;SDS011;23002;52.676;6.432;2024-03-02T09:29:11;1.40;;;0.35;;
37087;SDS011;23002;52.676;6.432;2024-03-02T09:31:41;3.88;;;0.57;;
37087;SDS011;23002;52.676;6.432;2024-03-02T09:34:09;2.60;;;0.40;;
37087;SDS011;23002;52.676;6.432;2024-03-02T09:36:36;0.93;;;0.43;;
37087;SDS011;23002;52.676;6.432;2024-03-02T09:39:03;1.23;;;0.40;;
37087;SDS011;23002;52.676;6.432;2024-03-02T09:41:32;1.30;;;0.50;;
37087;SDS011;23002;52.676;6.432;2024-03-02T09:43:59;1.30;;;0.30;;
37087;SDS011;23002;52.676;6.432;2024-03-02T09:46:27;2.20;;;0.40;;
37087;SDS011;23002;52.676;6.432;2024-03-02T09:48:54;0.50;;;0.35;;
37087;SDS011;23002;52.676;6.432;2024-03-02T09:51:22;1.77;;;0.50;;
37087;SDS011;23002;52.676;6.432;2024-03-02T09:53:49;1.67;;;0.43;;
37087;SDS011;23002;52.676;6.432;2024-03-02T09:56:16;1.33;;;0.30;;
37087;SDS011;23002;52.676;6.432;2024-03-02T09:58:47;0.30;;;0.30;;
37087;SDS011;23002;52.676;6.432;2024-03-02T10:01:14;2.28;;;0.40;;
37087;SDS011;23002;52.676;6.432;2024-03-02T10:03:41;0.70;;;0.40;;
37087;SDS011;23002;52.676;6.432;2024-03-02T10:06:27;0.70;;;0.40;;
37087;SDS011;23002;52.676;6.432;2024-03-02T10:08:55;2.25;;;0.30;;
37087;SDS011;23002;52.676;6.432;2024-03-02T10:14:03;2.78;;;0.30;;
37087;SDS011;23002;52.676;6.432;2024-03-02T10:16:43;1.05;;;0.30;;
37087;SDS011;23002;52.676;6.432;2024-03-02T10:19:18;1.65;;;0.40;;
37087;SDS011;23002;52.676;6.432;2024-03-02T10:21:46;3.03;;;0.40;;
37087;SDS011;23002;52.676;6.432;2024-03-02T10:24:13;1.45;;;0.55;;
37087;SDS011;23002;52.676;6.432;2024-03-02T10:26:40;2.15;;;0.40;;
37087;SDS011;23002;52.676;6.432;2024-03-02T10:29:08;0.82;;;0.40;;
37087;SDS011;23002;52.676;6.432;2024-03-02T10:31:40;2.15;;;0.45;;
37087;SDS011;23002;52.676;6.432;2024-03-02T10:34:07;0.20;;;0.20;;
37087;SDS011;23002;52.676;6.432;2024-03-02T10:36:35;0.68;;;0.40;;
37087;SDS011;23002;52.676;6.432;2024-03-02T10:39:03;2.63;;;0.40;;
37087;SDS011;23002;52.676;6.432;2024-03-02T10:41:34;1.63;;;0.40;;
37087;SDS011;23002;52.676;6.432;2024-03-02T10:44:03;0.95;;;0.30;;
37087;SDS011;23002;52.676;6.432;2024-03-02T10:46:31;0.70;;;0.40;;
37087;SDS011;23002;52.676;6.432;2024-03-02T10:48:59;1.52;;;0.50;;
37087;SDS011;23002;52.676;6.432;2024-03-02T10:51:29;3.08;;;0.47;;
37087;SDS011;23002;52.676;6.432;2024-03-02T10:53:58;1.77;;;0.30;;
37087;SDS011;23002;52.676;6.432;2024-03-02T10:56:33;6.15;;;0.47;;
37087;SDS011;23002;52.676;6.432;2024-03-02T10:59:01;2.80;;;0.60;;
37087;SDS011;23002;52.676;6.432;2024-03-02T11:01:30;1.38;;;0.50;;
37087;SDS011;23002;52.676;6.432;2024-03-02T11:03:59;2.92;;;0.65;;
37087;SDS011;23002;52.676;6.432;2024-03-02T11:06:28;1.58;;;0.60;;
37087;SDS011;23002;52.676;6.432;2024-03-02T11:08:58;0.30;;;0.30;;
37087;SDS011;23002;52.676;6.432;2024-03-02T11:11:29;1.67;;;0.38;;
37087;SDS011;23002;52.676;6.432;2024-03-02T11:13:58;1.92;;;0.40;;
37087;SDS011;23002;52.676;6.432;2024-03-02T11:16:35;0.75;;;0.35;;
37087;SDS011;23002;52.676;6.432;2024-03-02T11:19:04;0.63;;;0.40;;
37087;SDS011;23002;52.676;6.432;2024-03-02T11:21:33;2.15;;;0.43;;
37087;SDS011;23002;52.676;6.432;2024-03-02T11:24:35;0.70;;;0.40;;
37087;SDS011;23002;52.676;6.432;2024-03-02T11:27:04;1.30;;;0.38;;
37087;SDS011;23002;52.676;6.432;2024-03-02T11:32:19;2.90;;;0.37;;
37087;SDS011;23002;52.676;6.432;2024-03-02T11:34:48;2.67;;;0.60;;
37087;SDS011;23002;52.676;6.432;2024-03-02T11:37:19;0.98;;;0.35;;
37087;SDS011;23002;52.676;6.432;2024-03-02T11:39:48;0.82;;;0.50;;
37087;SDS011;23002;52.676;6.432;2024-03-02T11:42:15;0.90;;;0.57;;
37087;SDS011;23002;52.676;6.432;2024-03-02T11:44:44;1.90;;;0.50;;
37087;SDS011;23002;52.676;6.432;2024-03-02T11:47:13;0.35;;;0.30;;
37087;SDS011;23002;52.676;6.432;2024-03-02T11:49:42;2.47;;;0.63;;
37087;SDS011;23002;52.676;6.432;2024-03-02T11:52:09;0.85;;;0.40;;
37087;SDS011;23002;52.676;6.432;2024-03-02T11:54:38;2.28;;;0.47;;
37087;SDS011;23002;52.676;6.432;2024-03-02T11:57:14;1.65;;;1.00;;
37087;SDS011;23002;52.676;6.432;2024-03-02T11:59:42;2.28;;;0.60;;
37087;SDS011;23002;52.676;6.432;2024-03-02T12:02:16;2.65;;;0.75;;
37087;SDS011;23002;52.676;6.432;2024-03-02T12:04:44;0.40;;;0.40;;
37087;SDS011;23002;52.676;6.432;2024-03-02T12:07:11;2.28;;;0.60;;
37087;SDS011;23002;52.676;6.432;2024-03-02T12:09:39;1.58;;;0.60;;
37087;SDS011;23002;52.676;6.432;2024-03-02T12:12:07;1.77;;;1.23;;
37087;SDS011;23002;52.676;6.432;2024-03-02T12:14:35;2.05;;;0.60;;
37087;SDS011;23002;52.676;6.432;2024-03-02T12:17:03;1.75;;;0.60;;
37087;SDS011;23002;52.676;6.432;2024-03-02T12:19:32;1.27;;;0.60;;
37087;SDS011;23002;52.676;6.432;2024-03-02T12:22:00;0.95;;;0.43;;
37087;SDS011;23002;52.676;6.432;2024-03-02T12:24:28;4.70;;;0.70;;
37087;SDS011;23002;52.676;6.432;2024-03-02T12:26:56;2.53;;;0.80;;
37087;SDS011;23002;52.676;6.432;2024-03-02T12:29:23;2.97;;;0.60;;
37087;SDS011;23002;52.676;6.432;2024-03-02T12:31:51;7.18;;;0.93;;
37087;SDS011;23002;52.676;6.432;2024-03-02T12:34:19;1.55;;;0.43;;
37087;SDS011;23002;52.676;6.432;2024-03-02T12:36:47;2.60;;;0.68;;
37087;SDS011;23002;52.676;6.432;2024-03-02T12:39:16;4.10;;;0.60;;
37087;SDS011;23002;52.676;6.432;2024-03-02T12:41:45;2.58;;;1.02;;
37087;SDS011;23002;52.676;6.432;2024-03-02T12:44:12;1.92;;;0.60;;
37087;SDS011;23002;52.676;6.432;2024-03-02T12:46:40;3.50;;;0.80;;
37087;SDS011;23002;52.676;6.432;2024-03-02T12:49:11;2.40;;;0.70;;
37087;SDS011;23002;52.676;6.432;2024-03-02T12:51:38;1.10;;;0.60;;
37087;SDS011;23002;52.676;6.432;2024-03-02T12:54:07;2.13;;;0.40;;
37087;SDS011;23002;52.676;6.432;2024-03-02T12:56:35;1.35;;;0.52;;
37087;SDS011;23002;52.676;6.432;2024-03-02T12:59:03;3.50;;;0.60;;
37087;SDS011;23002;52.676;6.432;2024-03-02T13:01:30;1.75;;;1.10;;
37087;SDS011;23002;52.676;6.432;2024-03-02T13:03:59;1.98;;;0.75;;
37087;SDS011;23002;52.676;6.432;2024-03-02T13:06:26;5.65;;;2.78;;
37087;SDS011;23002;52.676;6.432;2024-03-02T13:08:54;4.35;;;1.33;;
37087;SDS011;23002;52.676;6.432;2024-03-02T13:11:22;3.83;;;1.05;;
37087;SDS011;23002;52.676;6.432;2024-03-02T13:13:51;3.15;;;1.30;;
37087;SDS011;23002;52.676;6.432;2024-03-02T13:16:18;2.10;;;1.13;;
37087;SDS011;23002;52.676;6.432;2024-03-02T13:18:55;2.65;;;1.20;;
37087;SDS011;23002;52.676;6.432;2024-03-02T13:21:22;2.35;;;1.00;;
37087;SDS011;23002;52.676;6.432;2024-03-02T13:23:50;2.53;;;1.38;;
37087;SDS011;23002;52.676;6.432;2024-03-02T13:26:17;1.70;;;1.00;;
37087;SDS011;23002;52.676;6.432;2024-03-02T13:28:45;2.13;;;1.13;;
37087;SDS011;23002;52.676;6.432;2024-03-02T13:31:12;1.35;;;1.00;;
37087;SDS011;23002;52.676;6.432;2024-03-02T13:33:39;2.03;;;1.10;;
37087;SDS011;23002;52.676;6.432;2024-03-02T13:36:06;1.50;;;1.08;;
37087;SDS011;23002;52.676;6.432;2024-03-02T13:38:34;2.55;;;1.17;;
37087;SDS011;23002;52.676;6.432;2024-03-02T13:41:02;1.75;;;1.05;;
37087;SDS011;23002;52.676;6.432;2024-03-02T13:43:30;2.88;;;1.30;;
37087;SDS011;23002;52.676;6.432;2024-03-02T13:46:02;2.97;;;1.42;;
37087;SDS011;23002;52.676;6.432;2024-03-02T13:48:29;3.60;;;1.42;;
37087;SDS011;23002;52.676;6.432;2024-03-02T13:50:57;3.60;;;1.73;;
37087;SDS011;23002;52.676;6.432;2024-03-02T13:53:24;4.90;;;1.60;;
37087;SDS011;23002;52.676;6.432;2024-03-02T13:55:51;3.42;;;1.67;;
37087;SDS011;23002;52.676;6.432;2024-03-02T13:58:19;4.55;;;1.90;;
37087;SDS011;23002;52.676;6.432;2024-03-02T14:00:47;3.22;;;1.38;;
37087;SDS011;23002;52.676;6.432;2024-03-02T14:03:15;2.95;;;1.63;;
37087;SDS011;23002;52.676;6.432;2024-03-02T14:05:42;4.68;;;1.85;;
37087;SDS011;23002;52.676;6.432;2024-03-02T14:08:12;4.88;;;1.88;;
37087;SDS011;23002;52.676;6.432;2024-03-02T14:10:39;2.78;;;1.73;;
37087;SDS011;23002;52.676;6.432;2024-03-02T14:13:06;4.13;;;1.60;;
37087;SDS011;23002;52.676;6.432;2024-03-02T14:15:34;3.70;;;1.80;;
37087;SDS011;23002;52.676;6.432;2024-03-02T14:18:05;3.33;;;1.33;;
37087;SDS011;23002;52.676;6.432;2024-03-02T14:20:32;4.45;;;1.80;;
37087;SDS011;23002;52.676;6.432;2024-03-02T14:23:00;4.78;;;1.77;;
37087;SDS011;23002;52.676;6.432;2024-03-02T14:25:29;2.72;;;1.77;;
37087;SDS011;23002;52.676;6.432;2024-03-02T14:27:59;3.33;;;1.35;;
37087;SDS011;23002;52.676;6.432;2024-03-02T14:30:47;2.78;;;1.63;;
37087;SDS011;23002;52.676;6.432;2024-03-02T14:33:14;2.15;;;1.42;;
37087;SDS011;23002;52.676;6.432;2024-03-02T14:35:42;2.63;;;1.48;;
37087;SDS011;23002;52.676;6.432;2024-03-02T14:38:10;2.63;;;1.45;;
37087;SDS011;23002;52.676;6.432;2024-03-02T14:40:37;2.88;;;1.30;;
37087;SDS011;23002;52.676;6.432;2024-03-02T14:43:04;2.22;;;1.20;;
37087;SDS011;23002;52.676;6.432;2024-03-02T14:45:32;3.15;;;1.00;;
37087;SDS011;23002;52.676;6.432;2024-03-02T14:47:59;2.45;;;1.13;;
37087;SDS011;23002;52.676;6.432;2024-03-02T14:50:27;1.38;;;1.00;;
37087;SDS011;23002;52.676;6.432;2024-03-02T14:52:55;2.33;;;1.05;;
37087;SDS011;23002;52.676;6.432;2024-03-02T14:55:26;1.83;;;1.33;;
37087;SDS011;23002;52.676;6.432;2024-03-02T14:57:54;2.65;;;1.05;;
37087;SDS011;23002;52.676;6.432;2024-03-02T15:00:21;3.20;;;1.40;;
37087;SDS011;23002;52.676;6.432;2024-03-02T15:02:48;2.22;;;1.20;;
37087;SDS011;23002;52.676;6.432;2024-03-02T15:05:16;3.13;;;1.40;;
37087;SDS011;23002;52.676;6.432;2024-03-02T15:07:44;2.65;;;1.75;;
37087;SDS011;23002;52.676;6.432;2024-03-02T15:10:11;1.85;;;1.00;;